createdAt,value
2019-05-26T00:04:42.582Z,60.52
2019-05-26T00:13:03.782Z,57.78
2019-05-26T00:21:24.968Z,57.25
2019-05-26T00:29:46.445Z,57.23
2019-05-26T00:38:07.769Z,58.70
2019-05-26T00:46:29.135Z,57.62
2019-05-26T00:54:50.280Z,58.80
2019-05-26T01:03:11.738Z,58.02
2019-05-26T01:11:32.871Z,57.23
2019-05-26T01:19:54.296Z,57.78
2019-05-26T01:28:15.557Z,57.55
2019-05-26T01:36:37.231Z,59.55
2019-05-26T01:44:58.663Z,57.95
2019-05-26T01:53:20.148Z,57.93
2019-05-26T02:01:41.405Z,58.05
2019-05-26T02:10:05.350Z,58.08
2019-05-26T02:18:26.906Z,56.70
2019-05-26T02:26:48.279Z,56.77
2019-05-26T02:35:10.400Z,56.25
2019-05-26T02:43:31.894Z,57.13
2019-05-26T02:51:52.965Z,57.05
2019-05-26T03:00:16.520Z,56.58
2019-05-26T03:08:37.814Z,56.50
2019-05-26T03:16:59.313Z,59.42
2019-05-26T03:25:20.408Z,57.83
2019-05-26T03:33:41.663Z,57.43
2019-05-26T03:42:03.174Z,59.55
2019-05-26T03:50:24.286Z,59.33
2019-05-26T03:58:45.644Z,58.15
2019-05-26T04:07:07.045Z,59.48
2019-05-26T04:15:28.356Z,60.40
2019-05-26T04:23:49.624Z,59.70
2019-05-26T04:32:11.077Z,60.65
2019-05-26T04:40:32.725Z,58.92
2019-05-26T04:48:53.891Z,58.58
2019-05-26T04:57:14.975Z,66.12
2019-05-26T05:05:36.313Z,60.75
2019-05-26T05:13:57.433Z,58.58
2019-05-26T05:22:18.933Z,60.08
2019-05-26T05:30:40.357Z,62.10
2019-05-26T05:39:01.463Z,60.03
2019-05-26T05:47:22.809Z,69.22
2019-05-26T05:55:44.307Z,60.05
2019-05-26T06:04:05.518Z,60.28
2019-05-26T06:12:26.797Z,64.58
2019-05-26T06:20:47.959Z,60.12
2019-05-26T06:29:09.216Z,60.85
2019-05-26T06:37:30.494Z,60.52
2019-05-26T06:45:51.734Z,60.38
2019-05-26T06:54:13.055Z,60.95
2019-05-26T07:02:34.193Z,61.77
2019-05-26T07:10:55.475Z,62.88
2019-05-26T07:19:16.813Z,60.83
2019-05-26T07:27:38.381Z,61.58
2019-05-26T07:35:59.431Z,62.50
2019-05-26T07:44:20.641Z,62.23
2019-05-26T07:52:42.143Z,62.73
2019-05-26T08:01:03.545Z,63.05
2019-05-26T08:09:25.127Z,61.83
2019-05-26T08:17:46.422Z,63.42
2019-05-26T08:26:07.847Z,62.03
2019-05-26T08:34:29.118Z,61.75
2019-05-26T08:42:50.999Z,64.22
2019-05-26T08:51:12.225Z,65.92
2019-05-26T08:59:33.468Z,64.22
2019-05-26T09:07:55.194Z,66.45
2019-05-26T09:16:16.319Z,65.20
2019-05-26T09:24:38.081Z,64.60
2019-05-26T09:32:59.205Z,63.15
2019-05-26T09:41:20.794Z,65.30
2019-05-26T09:49:42.433Z,65.22
2019-05-26T09:58:06.023Z,64.87
2019-05-26T10:06:27.896Z,65.72
2019-05-26T10:14:48.965Z,65.03
2019-05-26T10:23:10.280Z,65.97
2019-05-26T10:31:31.949Z,67.62
2019-05-26T10:39:53.418Z,65.15
2019-05-26T10:48:14.670Z,67.00
2019-05-26T10:56:36.257Z,70.52
2019-05-26T11:04:57.784Z,70.50
2019-05-26T11:13:19.337Z,73.02
2019-05-26T11:21:41.566Z,75.30
2019-05-26T11:30:04.807Z,74.20
2019-05-26T11:38:26.031Z,73.65
2019-05-26T11:46:49.979Z,72.10
2019-05-26T11:55:11.024Z,71.87
2019-05-26T12:03:32.784Z,73.47
2019-05-26T12:11:54.189Z,70.83
2019-05-26T12:20:15.577Z,70.80
2019-05-26T12:28:37.449Z,68.75
2019-05-26T12:37:01.382Z,69.75
2019-05-26T12:45:22.947Z,67.80
2019-05-26T12:53:44.696Z,67.58
2019-05-26T13:02:08.435Z,70.70
2019-05-26T13:10:29.778Z,70.78
2019-05-26T13:18:51.471Z,71.65
2019-05-26T13:27:13.313Z,70.08
2019-05-26T13:35:34.361Z,68.22
2019-05-26T13:43:56.112Z,69.20
2019-05-26T13:52:17.716Z,72.85
2019-05-26T14:00:39.331Z,70.12
2019-05-26T14:09:02.601Z,69.00
2019-05-26T14:17:21.818Z,72.55
2019-05-26T14:25:43.171Z,69.15
2019-05-26T14:34:04.575Z,72.60
2019-05-26T14:42:25.990Z,70.12
2019-05-26T14:50:49.573Z,71.82
2019-05-26T14:59:13.218Z,71.00
2019-05-26T15:07:34.872Z,71.02
2019-05-26T15:16:10.567Z,73.50
2019-05-26T15:24:20.473Z,71.53
2019-05-26T15:32:41.930Z,75.80
2019-05-26T15:41:03.473Z,73.52
2019-05-26T15:49:24.992Z,72.32
2019-05-26T15:57:46.595Z,71.25
2019-05-26T16:06:08.058Z,73.85
2019-05-26T16:14:30.235Z,73.37
2019-05-26T16:22:51.965Z,75.32
2019-05-26T16:31:13.844Z,74.95
2019-05-26T16:39:37.834Z,76.22
2019-05-26T16:47:57.657Z,73.92
2019-05-26T16:56:24.101Z,74.17
2019-05-26T17:04:44.716Z,72.47
2019-05-26T17:13:06.455Z,73.78
2019-05-26T17:21:27.979Z,72.42
2019-05-26T17:29:49.941Z,72.05
2019-05-26T17:38:11.454Z,74.72
2019-05-26T17:46:33.213Z,70.92
2019-05-26T17:54:54.788Z,73.55
2019-05-26T18:03:17.394Z,71.85
2019-05-26T18:11:41.637Z,74.10
2019-05-26T18:20:06.745Z,71.12
2019-05-26T18:28:28.337Z,70.45
2019-05-26T18:36:52.861Z,71.15
2019-05-26T18:45:14.728Z,69.22
2019-05-26T18:53:36.064Z,71.12
2019-05-26T19:01:57.886Z,70.40
2019-05-26T19:10:19.998Z,71.42
2019-05-26T19:18:41.924Z,70.12
2019-05-26T19:27:05.709Z,67.25
2019-05-26T19:35:26.988Z,67.90
2019-05-26T19:43:48.634Z,68.17
2019-05-26T19:52:10.354Z,70.32
2019-05-26T20:00:32.594Z,68.97
2019-05-26T20:08:53.963Z,71.10
2019-05-26T20:17:15.504Z,70.55
2019-05-26T20:25:37.074Z,72.80
2019-05-26T20:33:58.592Z,73.12
2019-05-26T20:42:19.945Z,67.72
2019-05-26T20:50:43.433Z,67.10
2019-05-26T20:59:07.151Z,66.97
2019-05-26T21:07:28.736Z,66.57
2019-05-26T21:15:52.177Z,68.83
2019-05-26T21:24:13.936Z,67.72
2019-05-26T21:32:35.563Z,67.27
2019-05-26T21:40:58.019Z,66.02
2019-05-26T21:49:19.885Z,65.83
2019-05-26T21:57:40.866Z,64.75
2019-05-26T22:06:02.512Z,65.10
2019-05-26T22:14:24.086Z,64.45
2019-05-26T22:22:45.502Z,66.15
2019-05-26T22:31:06.997Z,64.47
2019-05-26T22:39:28.523Z,63.15
2019-05-26T22:47:49.697Z,65.25
2019-05-26T22:56:10.872Z,63.87
2019-05-26T23:04:32.407Z,62.08
2019-05-26T23:12:53.692Z,63.33
2019-05-26T23:21:15.009Z,62.93
2019-05-26T23:29:36.283Z,62.15
2019-05-26T23:37:57.747Z,62.70
2019-05-26T23:46:19.019Z,60.98
2019-05-26T23:54:40.181Z,62.48
